Time;durP1;ratioP1;P1;durP2;ratioP2;P2;SDS_P1;SDS_P2;PMS_P1;PMS_P2;Temp;Humidity;BMP_temperature;BMP_pressure;BME280_temperature;BME280_humidity;BME280_pressure;Samples;Min_cycle;Max_cycle;Signal;HPM_P1;HPM_P2
2024/02/11 00:02:13;;;;;;;10.80;6.40;;;;;;;11.55;61.43;100216.23;109496;1251;58698;-62
2024/02/11 00:04:42;;;;;;;12.20;6.60;;;;;;;11.55;61.48;100220.61;109553;1251;72926;-60
2024/02/11 00:07:11;;;;;;;12.30;7.10;;;;;;;11.57;61.48;100218.64;109503;1251;72843;-61
2024/02/11 00:09:38;;;;;;;13.00;6.90;;;;;;;11.60;61.35;100223.68;109576;1251;72673;-62
2024/02/11 00:12:08;;;;;;;13.30;6.70;;;;;;;11.64;61.07;100222.90;109191;1251;60992;-62
2024/02/11 00:14:36;;;;;;;18.10;6.50;;;;;;;11.66;61.01;100217.05;109536;1251;59985;-60
2024/02/11 00:17:05;;;;;;;15.30;6.30;;;;;;;11.68;60.91;100214.38;109498;1251;73870;-59
2024/02/11 00:19:35;;;;;;;11.10;5.80;;;;;;;11.71;60.95;100215.90;109476;1251;72705;-61
2024/02/11 00:22:03;;;;;;;13.10;6.20;;;;;;;11.73;60.95;100213.40;109505;1251;72657;-58
2024/02/11 00:24:31;;;;;;;12.00;5.80;;;;;;;11.75;60.99;100213.18;109552;1250;58827;-60
2024/02/11 00:26:58;;;;;;;12.60;6.10;;;;;;;11.78;61.00;100209.06;109482;1251;60104;-60
2024/02/11 00:29:26;;;;;;;10.40;6.40;;;;;;;11.82;61.05;100208.28;109504;1251;73889;-61
2024/02/11 00:31:56;;;;;;;12.10;6.30;;;;;;;11.84;61.02;100204.92;109517;1251;72008;-59
2024/02/11 00:34:24;;;;;;;14.30;6.40;;;;;;;11.86;60.98;100202.92;109547;1251;72843;-60
2024/02/11 00:36:52;;;;;;;14.90;6.40;;;;;;;11.87;60.88;100203.97;109444;1251;58856;-59
2024/02/11 00:39:19;;;;;;;14.70;6.30;;;;;;;11.87;60.86;100206.25;109432;1251;60113;-60
2024/02/11 00:41:47;;;;;;;10.70;6.30;;;;;;;11.85;61.01;100209.80;109488;1251;72636;-59
2024/02/11 00:44:16;;;;;;;13.00;6.60;;;;;;;11.86;61.03;100213.13;109504;1251;73321;-59
2024/02/11 00:46:46;;;;;;;14.50;6.20;;;;;;;11.85;60.99;100213.84;109526;1251;71410;-60
2024/02/11 00:49:15;;;;;;;15.70;7.00;;;;;;;11.85;61.07;100206.46;109434;1251;58828;-59
2024/02/11 00:51:43;;;;;;;11.50;5.90;;;;;;;11.85;61.11;100210.50;109484;1251;60055;-59
2024/02/11 00:54:11;;;;;;;11.20;6.80;;;;;;;11.86;61.14;100212.59;109510;1251;73976;-59
2024/02/11 00:56:41;;;;;;;9.70;5.60;;;;;;;11.88;61.05;100212.38;109554;1251;71979;-59
2024/02/11 00:59:10;;;;;;;15.20;6.60;;;;;;;11.89;60.96;100217.09;109449;1251;72931;-59
2024/02/11 01:01:40;;;;;;;11.00;6.50;;;;;;;11.89;60.93;100215.52;109482;1253;60087;-59
2024/02/11 01:04:08;;;;;;;14.00;6.30;;;;;;;11.91;60.97;100217.05;109523;1251;60051;-59
2024/02/11 01:06:36;;;;;;;12.50;5.70;;;;;;;11.93;60.90;100209.64;109554;1251;73092;-59
2024/02/11 01:09:05;;;;;;;12.70;6.10;;;;;;;11.94;60.96;100202.61;109498;1251;72752;-60
2024/02/11 01:11:33;;;;;;;11.00;5.80;;;;;;;11.97;60.91;100191.11;109499;1251;72772;-60
2024/02/11 01:14:01;;;;;;;10.70;5.80;;;;;;;12.02;61.01;100188.19;109479;1251;60147;-59
2024/02/11 01:16:28;;;;;;;10.30;5.50;;;;;;;12.12;60.81;100183.91;109524;1251;60106;-59
2024/02/11 01:18:58;;;;;;;12.40;5.90;;;;;;;12.26;60.62;100180.77;109290;1251;73920;-60
2024/02/11 01:21:26;;;;;;;13.00;6.00;;;;;;;12.37;60.41;100179.80;109494;1250;71590;-59
2024/02/11 01:23:54;;;;;;;10.70;5.90;;;;;;;12.46;60.06;100179.04;109491;1251;70776;-61
2024/02/11 01:26:21;;;;;;;9.80;5.80;;;;;;;12.50;59.84;100182.11;109359;1251;58832;-60
2024/02/11 01:28:49;;;;;;;10.80;5.30;;;;;;;12.55;59.64;100181.13;109590;1250;60118;-60
2024/02/11 01:31:17;;;;;;;11.50;5.50;;;;;;;12.60;59.53;100188.38;109511;1251;73887;-60
2024/02/11 01:33:44;;;;;;;13.70;5.70;;;;;;;12.64;59.37;100190.38;109546;1251;72911;-60
2024/02/11 01:36:12;;;;;;;16.50;7.30;;;;;;;12.63;59.31;100184.96;109503;1251;72756;-60
2024/02/11 01:38:40;;;;;;;14.10;5.90;;;;;;;12.59;59.21;100186.64;109488;1251;60037;-60
2024/02/11 01:41:08;;;;;;;13.20;5.40;;;;;;;12.53;59.37;100178.36;109317;1250;60019;-60
2024/02/11 01:43:35;;;;;;;16.70;5.90;;;;;;;12.45;59.57;100179.95;109505;1251;74006;-60
2024/02/11 01:46:06;;;;;;;15.40;6.10;;;;;;;12.40;59.72;100180.60;109554;1251;72242;-61
2024/02/11 01:48:33;;;;;;;14.00;5.80;;;;;;;12.39;59.82;100176.74;109511;1250;72739;-60
2024/02/11 01:51:01;;;;;;;13.40;6.50;;;;;;;12.38;59.84;100174.86;109108;1254;58789;-60
2024/02/11 01:53:29;;;;;;;16.70;6.40;;;;;;;12.39;59.87;100173.23;109168;1254;58815;-59
2024/02/11 01:55:56;;;;;;;11.30;5.80;;;;;;;12.45;59.77;100166.41;109163;1256;73919;-60
2024/02/11 01:58:24;;;;;;;12.10;5.80;;;;;;;12.54;59.61;100170.24;109029;1255;72852;-59
2024/02/11 02:00:52;;;;;;;16.20;5.80;;;;;;;12.62;59.37;100172.13;109051;1255;71145;-61
2024/02/11 02:03:20;;;;;;;12.80;5.70;;;;;;;12.75;59.10;100172.52;109084;1255;59197;-59
2024/02/11 02:05:48;;;;;;;10.00;5.40;;;;;;;12.84;58.81;100170.69;109053;1255;60038;-60
2024/02/11 02:08:15;;;;;;;11.10;5.20;;;;;;;12.91;58.53;100165.92;108926;1257;72706;-61
2024/02/11 02:10:44;;;;;;;9.80;4.70;;;;;;;12.97;58.12;100162.08;108930;1258;72956;-61
2024/02/11 02:13:12;;;;;;;8.80;4.60;;;;;;;13.00;57.91;100160.04;108955;1257;72797;-61
2024/02/11 02:15:39;;;;;;;13.50;5.80;;;;;;;13.04;57.59;100158.16;108944;1256;58887;-61
2024/02/11 02:18:08;;;;;;;12.80;5.60;;;;;;;13.04;57.41;100156.95;108811;1257;58805;-60
2024/02/11 02:20:35;;;;;;;10.50;5.30;;;;;;;12.96;57.19;100162.44;108959;1259;73914;-59
2024/02/11 02:23:05;;;;;;;12.80;5.90;;;;;;;12.85;57.21;100162.55;109264;1254;72888;-59
2024/02/11 02:25:33;;;;;;;10.60;5.40;;;;;;;12.77;57.29;100166.98;109209;1254;72703;-59
2024/02/11 02:28:05;;;;;;;11.00;5.50;;;;;;;12.74;57.45;100165.48;109160;1254;58991;-60
2024/02/11 02:30:35;;;;;;;10.70;5.20;;;;;;;12.73;57.54;100159.72;109221;1253;58836;-61
2024/02/11 02:33:03;;;;;;;13.60;5.10;;;;;;;12.73;57.49;100163.60;109054;1254;74398;-61
2024/02/11 02:35:33;;;;;;;10.90;5.10;;;;;;;12.71;57.41;100158.89;109208;1254;71582;-60
2024/02/11 02:38:01;;;;;;;12.60;5.60;;;;;;;12.69;57.38;100154.01;109218;1256;72704;-61
2024/02/11 02:40:31;;;;;;;13.80;6.20;;;;;;;12.68;57.59;100158.07;109117;1252;58794;-60
2024/02/11 02:42:59;;;;;;;14.10;5.80;;;;;;;12.70;57.53;100158.91;109141;1253;59231;-60
2024/02/11 02:45:26;;;;;;;14.20;5.70;;;;;;;12.70;57.53;100160.30;109401;1252;72597;-60
2024/02/11 02:47:55;;;;;;;14.80;5.90;;;;;;;12.69;57.52;100164.73;109384;1253;71473;-61
2024/02/11 02:50:22;;;;;;;17.00;6.00;;;;;;;12.65;57.63;100166.79;109408;1252;71392;-59
2024/02/11 02:52:50;;;;;;;11.80;4.80;;;;;;;12.64;57.61;100161.52;109360;1252;60114;-61
2024/02/11 02:55:19;;;;;;;10.90;4.90;;;;;;;12.64;57.65;100158.52;109535;1251;60093;-60
2024/02/11 02:57:47;;;;;;;14.70;5.60;;;;;;;12.67;57.61;100162.66;109520;1253;73994;-59
2024/02/11 03:00:15;;;;;;;13.60;5.30;;;;;;;12.70;57.65;100164.53;109424;1253;72860;-60
2024/02/11 03:02:47;;;;;;;12.10;5.00;;;;;;;12.75;57.53;100159.85;109521;1251;72713;-59
2024/02/11 03:05:15;;;;;;;13.80;6.10;;;;;;;12.74;57.43;100156.00;109455;1253;58843;-58
2024/02/11 03:07:43;;;;;;;13.80;5.90;;;;;;;12.68;57.48;100157.20;109429;1251;58784;-59
2024/02/11 03:10:20;;;;;;;12.20;5.40;;;;;;;12.64;57.52;100152.03;109498;1251;73859;-59
2024/02/11 03:12:49;;;;;;;13.50;5.30;;;;;;;12.61;57.55;100154.39;109149;1251;71394;-59
2024/02/11 03:15:16;;;;;;;11.50;5.10;;;;;;;12.58;57.60;100155.52;109188;1251;72749;-59
2024/02/11 03:17:44;;;;;;;12.40;6.20;;;;;;;12.56;57.69;100156.81;109534;1251;58849;-59
2024/02/11 03:20:15;;;;;;;11.30;5.00;;;;;;;12.55;57.80;100159.47;109550;1251;58801;-60
2024/02/11 03:22:43;;;;;;;12.90;5.40;;;;;;;12.58;57.87;100166.62;109484;1253;72631;-60
2024/02/11 03:25:13;;;;;;;14.90;5.00;;;;;;;12.58;57.66;100159.91;109509;1251;72835;-60
2024/02/11 03:27:41;;;;;;;13.90;4.90;;;;;;;12.54;57.79;100157.04;109492;1253;72833;-60
2024/02/11 03:30:10;;;;;;;15.60;5.20;;;;;;;12.50;57.73;100158.54;109534;1251;58820;-60
2024/02/11 03:32:40;;;;;;;13.40;4.80;;;;;;;12.45;57.87;100160.08;109287;1252;58858;-60
2024/02/11 03:35:08;;;;;;;14.20;5.50;;;;;;;12.41;57.96;100152.44;109448;1251;72589;-59
2024/02/11 03:37:36;;;;;;;13.80;6.00;;;;;;;12.35;58.07;100141.50;109486;1253;72989;-59
2024/02/11 03:40:12;;;;;;;12.90;5.00;;;;;;;12.31;58.11;100135.27;109506;1252;72755;-60
2024/02/11 03:42:40;;;;;;;16.90;6.20;;;;;;;12.22;58.15;100134.10;109502;1253;60090;-59
2024/02/11 03:45:17;;;;;;;13.10;5.60;;;;;;;12.07;58.40;100142.17;109506;1253;58816;-59
2024/02/11 03:47:47;;;;;;;11.30;4.80;;;;;;;11.94;58.90;100147.58;109328;1251;72621;-60
2024/02/11 03:50:15;;;;;;;10.00;4.20;;;;;;;11.91;59.21;100148.31;109510;1251;71625;-60
2024/02/11 03:52:43;;;;;;;12.80;4.90;;;;;;;11.94;59.36;100149.36;109533;1251;71402;-59
2024/02/11 03:55:11;;;;;;;15.50;4.80;;;;;;;11.97;59.41;100149.81;109456;1251;58937;-59
2024/02/11 03:57:40;;;;;;;17.50;6.70;;;;;;;12.00;59.45;100149.91;109529;1252;60087;-59
2024/02/11 04:00:26;;;;;;;17.00;5.70;;;;;;;12.02;59.36;100163.92;109462;1251;73828;-59
2024/02/11 04:02:54;;;;;;;11.10;4.80;;;;;;;12.01;59.46;100183.65;109492;1251;72855;-58
2024/02/11 04:05:26;;;;;;;16.00;5.50;;;;;;;12.06;59.29;100177.38;109187;1251;71376;-59
2024/02/11 04:07:56;;;;;;;11.20;5.30;;;;;;;12.11;59.22;100184.98;109194;1252;60129;-59
2024/02/11 04:10:28;;;;;;;9.60;4.50;;;;;;;12.17;59.05;100173.59;109523;1252;59214;-59
2024/02/11 04:12:58;;;;;;;16.50;4.70;;;;;;;12.21;58.93;100172.80;109489;1251;73864;-59
2024/02/11 04:15:27;;;;;;;12.80;4.40;;;;;;;12.22;58.73;100173.48;109371;1252;72143;-58
2024/02/11 04:17:56;;;;;;;11.40;4.80;;;;;;;12.23;58.51;100175.58;109194;1251;71257;-59
2024/02/11 04:20:26;;;;;;;13.30;4.90;;;;;;;12.19;58.67;100176.19;109372;1251;60136;-59
2024/02/11 04:22:58;;;;;;;13.80;4.80;;;;;;;12.14;58.57;100171.39;109358;1251;58542;-58
2024/02/11 04:25:30;;;;;;;14.00;5.40;;;;;;;12.05;58.64;100168.41;109436;1253;73032;-58
2024/02/11 04:27:58;;;;;;;11.30;5.10;;;;;;;11.95;58.91;100177.44;109538;1251;71869;-58
2024/02/11 04:30:30;;;;;;;15.60;5.10;;;;;;;11.86;59.22;100168.48;109515;1251;72846;-59
2024/02/11 04:33:02;;;;;;;12.80;4.90;;;;;;;11.79;59.64;100168.80;109314;1251;60593;-60
2024/02/11 04:35:30;;;;;;;;;;;;;;;11.73;59.69;100152.41;109562;1251;60097;-61
2024/02/11 04:37:59;;;;;;;11.90;4.60;;;;;;;11.71;59.89;100158.96;109475;1251;74730;-59
2024/02/11 04:40:27;;;;;;;13.50;5.60;;;;;;;11.70;60.05;100180.25;109476;1253;71648;-60
2024/02/11 04:42:56;;;;;;;15.30;5.50;;;;;;;11.73;60.25;100175.97;109497;1253;71344;-60
2024/02/11 04:45:25;;;;;;;17.20;5.30;;;;;;;11.77;60.43;100158.66;109503;1252;60253;-60
2024/02/11 04:47:54;;;;;;;15.80;5.10;;;;;;;11.86;60.35;100169.52;109540;1251;58999;-60
2024/02/11 04:50:22;;;;;;;14.70;5.20;;;;;;;11.92;60.26;100165.01;109477;1251;73723;-60
2024/02/11 04:52:56;;;;;;;18.10;5.20;;;;;;;11.94;60.09;100173.60;109500;1253;72804;-60
2024/02/11 04:55:28;;;;;;;15.60;4.70;;;;;;;11.93;60.10;100168.86;109463;1251;71425;-59
2024/02/11 04:58:00;;;;;;;16.00;5.20;;;;;;;11.93;60.14;100173.44;109499;1251;59064;-60
2024/02/11 05:00:28;;;;;;;10.60;4.90;;;;;;;11.91;60.05;100169.24;109508;1251;60209;-60
2024/02/11 05:02:58;;;;;;;17.10;6.00;;;;;;;11.90;60.19;100168.38;109507;1252;74739;-60
2024/02/11 05:05:29;;;;;;;14.90;6.00;;;;;;;11.96;60.23;100158.45;109513;1251;71680;-60
2024/02/11 05:08:00;;;;;;;17.30;5.10;;;;;;;12.00;60.14;100160.45;109449;1252;73117;-59
2024/02/11 05:10:33;;;;;;;12.00;4.80;;;;;;;12.02;60.04;100167.08;109508;1256;60116;-59
2024/02/11 05:13:04;;;;;;;20.20;5.40;;;;;;;12.02;59.98;100161.11;109494;1253;60198;-59
2024/02/11 05:15:33;;;;;;;15.00;5.10;;;;;;;12.01;60.00;100150.06;109491;1252;73471;-58
2024/02/11 05:18:01;;;;;;;18.30;6.10;;;;;;;12.03;60.05;100155.64;109509;1252;72031;-60
2024/02/11 05:20:29;;;;;;;15.40;5.30;;;;;;;12.05;59.85;100154.91;109300;1251;72731;-58
2024/02/11 05:22:59;;;;;;;13.40;4.90;;;;;;;12.05;59.88;100177.55;109447;1252;60010;-60
2024/02/11 05:25:27;;;;;;;18.30;5.30;;;;;;;12.08;59.92;100200.00;109499;1251;59008;-63
2024/02/11 05:27:58;;;;;;;18.40;5.60;;;;;;;12.06;59.87;100184.05;109508;1252;74558;-63
2024/02/11 05:30:27;;;;;;;18.70;5.60;;;;;;;12.00;60.03;100207.56;109461;1253;72837;-68
2024/02/11 05:32:57;;;;;;;21.00;5.60;;;;;;;11.97;62.44;100193.40;109482;1253;71217;-61
2024/02/11 05:35:29;;;;;;;13.20;4.70;;;;;;;12.10;65.77;100208.94;109421;1251;61736;-61
2024/02/11 05:38:01;;;;;;;14.50;4.90;;;;;;;12.20;66.04;100203.06;109473;1251;58971;-60
2024/02/11 05:40:33;;;;;;;17.70;5.70;;;;;;;12.22;65.53;100190.36;109504;1254;74712;-59
2024/02/11 05:43:01;;;;;;;14.50;5.50;;;;;;;12.21;64.82;100196.18;109471;1251;73000;-64
2024/02/11 05:45:28;;;;;;;20.00;6.00;;;;;;;12.18;64.35;100209.98;109475;1252;72705;-63
2024/02/11 05:47:58;;;;;;;18.10;6.10;;;;;;;12.15;63.91;100221.64;109523;1251;59075;-62
2024/02/11 05:50:26;;;;;;;14.90;5.20;;;;;;;12.13;63.47;100230.84;109518;1251;59083;-63
2024/02/11 05:52:54;;;;;;;17.10;6.00;;;;;;;12.11;63.11;100221.55;109506;1254;74933;-66
2024/02/11 05:55:22;;;;;;;14.80;5.40;;;;;;;12.08;62.88;100215.11;109521;1251;71924;-64
2024/02/11 05:57:52;;;;;;;16.40;5.40;;;;;;;12.04;62.71;100224.72;109194;1253;72758;-64
2024/02/11 06:00:22;;;;;;;15.50;6.20;;;;;;;12.02;62.56;100238.46;109532;1253;59063;-62
2024/02/11 06:02:56;;;;;;;14.30;5.60;;;;;;;12.01;62.46;100241.29;109532;1253;59316;-62
2024/02/11 06:05:24;;;;;;;18.30;5.90;;;;;;;12.00;62.35;100233.23;109523;1254;74106;-62
2024/02/11 06:07:54;;;;;;;15.70;5.60;;;;;;;11.99;62.33;100226.23;109465;1253;73821;-61
2024/02/11 06:10:25;;;;;;;14.80;6.50;;;;;;;11.98;62.36;100221.33;109568;1251;71334;-61
2024/02/11 06:12:53;;;;;;;19.40;5.90;;;;;;;12.00;62.29;100220.58;109167;1251;60458;-62
2024/02/11 06:15:21;;;;;;;18.70;6.50;;;;;;;12.01;62.23;100219.67;109527;1251;60160;-63
2024/02/11 06:17:50;;;;;;;16.30;5.10;;;;;;;12.02;62.29;100218.61;109518;1251;73598;-61
2024/02/11 06:20:20;;;;;;;20.70;5.40;;;;;;;12.02;62.22;100228.61;109482;1252;73047;-61
2024/02/11 06:22:52;;;;;;;14.20;5.20;;;;;;;12.02;62.13;100228.98;109515;1251;72945;-61
2024/02/11 06:25:20;;;;;;;14.20;5.30;;;;;;;12.01;61.98;100224.08;109222;1254;59138;-60
2024/02/11 06:27:49;;;;;;;17.90;5.70;;;;;;;12.00;62.08;100226.39;109186;1254;60174;-61
2024/02/11 06:30:17;;;;;;;15.10;5.80;;;;;;;11.99;62.07;100223.23;109174;1251;74738;-61
2024/02/11 06:32:49;;;;;;;16.50;5.00;;;;;;;12.00;62.19;100220.59;109555;1252;72822;-62
2024/02/11 06:35:21;;;;;;;17.40;5.90;;;;;;;12.00;62.09;100223.91;109480;1253;74903;-61
2024/02/11 06:37:49;;;;;;;25.60;6.70;;;;;;;12.01;62.08;100216.69;109482;1251;59008;-61
2024/02/11 06:40:23;;;;;;;13.80;5.50;;;;;;;12.00;61.95;100213.19;109493;1254;59277;-61
2024/02/11 06:42:51;;;;;;;17.20;4.90;;;;;;;12.00;61.98;100209.51;109223;1259;73575;-61
2024/02/11 06:45:20;;;;;;;16.20;5.40;;;;;;;12.01;62.00;100207.90;109209;1254;72870;-61
2024/02/11 06:47:47;;;;;;;12.10;5.60;;;;;;;12.08;61.83;100210.90;109470;1253;72752;-61
2024/02/11 06:50:16;;;;;;;16.30;5.50;;;;;;;12.18;61.33;100205.77;109451;1253;59012;-61
2024/02/11 06:52:47;;;;;;;14.60;5.00;;;;;;;12.23;61.18;100202.98;109494;1253;58980;-61
2024/02/11 06:55:16;;;;;;;15.70;5.10;;;;;;;12.32;61.05;100198.21;109461;1253;74615;-61
2024/02/11 06:57:44;;;;;;;15.90;5.40;;;;;;;12.43;60.80;100191.80;109460;1253;71784;-63
2024/02/11 07:00:14;;;;;;;17.30;5.30;;;;;;;12.50;60.49;100184.59;109468;1251;73001;-62
2024/02/11 07:02:47;;;;;;;10.50;4.90;;;;;;;12.55;60.21;100176.72;109251;1252;60297;-62
2024/02/11 07:05:15;;;;;;;11.20;4.50;;;;;;;12.58;59.90;100172.23;109508;1254;59407;-62
2024/02/11 07:07:44;;;;;;;14.90;4.90;;;;;;;12.60;59.73;100173.09;109365;1251;74641;-62
2024/02/11 07:10:13;;;;;;;14.50;5.10;;;;;;;12.62;59.70;100179.35;109449;1252;72894;-61
2024/02/11 07:12:44;;;;;;;15.60;4.90;;;;;;;12.66;59.50;100183.11;109448;1253;72988;-61
2024/02/11 07:15:14;;;;;;;18.90;6.10;;;;;;;12.71;59.29;100184.58;109433;1253;60962;-61
2024/02/11 07:17:42;;;;;;;12.00;5.70;;;;;;;12.74;59.14;100183.80;109507;1251;60259;-60
2024/02/11 07:20:14;;;;;;;16.90;6.00;;;;;;;12.77;58.98;100181.27;109504;1253;74440;-59
2024/02/11 07:22:43;;;;;;;18.50;5.60;;;;;;;12.80;58.85;100183.46;109317;1253;72887;-59
2024/02/11 07:25:17;;;;;;;10.80;5.20;;;;;;;12.82;58.68;100190.09;109081;1253;71468;-58
2024/02/11 07:27:45;;;;;;;14.40;5.00;;;;;;;12.84;58.70;100190.22;109285;1254;59120;-60
2024/02/11 07:30:13;;;;;;;15.90;5.20;;;;;;;12.87;58.53;100191.73;109260;1253;59065;-59
2024/02/11 07:32:45;;;;;;;13.20;4.70;;;;;;;12.91;58.38;100199.38;109472;1254;73457;-59
2024/02/11 07:35:15;;;;;;;14.60;6.30;;;;;;;12.92;58.29;100208.68;109502;1253;73745;-60
2024/02/11 07:37:44;;;;;;;18.20;5.30;;;;;;;12.95;58.09;100203.84;109509;1254;71416;-59
2024/02/11 07:40:14;;;;;;;13.30;5.00;;;;;;;12.96;57.91;100204.86;109501;1253;60116;-59
2024/02/11 07:42:43;;;;;;;15.50;6.60;;;;;;;12.95;57.79;100218.10;109471;1252;58997;-59
2024/02/11 07:45:14;;;;;;;18.60;4.80;;;;;;;12.94;57.72;100214.58;109453;1253;74694;-60
2024/02/11 07:47:47;;;;;;;13.20;4.60;;;;;;;12.97;57.64;100211.87;109239;1251;71559;-60
2024/02/11 07:50:17;;;;;;;15.10;4.70;;;;;;;13.01;57.71;100209.33;109474;1251;71519;-60
2024/02/11 07:52:46;;;;;;;13.00;5.30;;;;;;;13.06;57.46;100200.75;109473;1251;60471;-61
2024/02/11 07:55:16;;;;;;;17.30;5.50;;;;;;;13.08;57.41;100197.87;109516;1252;59072;-63
2024/02/11 07:57:43;;;;;;;13.90;5.10;;;;;;;13.11;57.30;100205.88;109526;1254;74892;-62
2024/02/11 08:00:15;;;;;;;12.40;4.50;;;;;;;13.15;57.27;100221.95;109269;1251;72826;-62
2024/02/11 08:02:43;;;;;;;14.50;4.90;;;;;;;13.19;57.20;100219.39;109468;1253;72017;-59
2024/02/11 08:05:12;;;;;;;13.40;4.90;;;;;;;13.22;57.04;100208.22;109466;1254;58981;-59
2024/02/11 08:07:39;;;;;;;26.10;6.70;;;;;;;13.21;56.96;100214.05;109498;1253;59035;-62
2024/02/11 08:10:07;;;;;;;12.40;4.40;;;;;;;13.20;56.93;100223.27;109449;1253;75127;-61
2024/02/11 08:12:35;;;;;;;13.60;4.90;;;;;;;13.17;57.00;100226.66;109515;1251;71076;-65
2024/02/11 08:15:04;;;;;;;16.20;5.70;;;;;;;13.17;56.90;100224.90;109497;1254;72687;-65
2024/02/11 08:17:32;;;;;;;18.50;6.50;;;;;;;13.15;57.00;100228.33;109502;1251;59058;-65
2024/02/11 08:19:59;;;;;;;20.30;7.10;;;;;;;13.10;57.05;100225.79;109530;1253;60063;-65
2024/02/11 08:22:27;;;;;;;14.10;5.10;;;;;;;13.05;57.22;100233.33;109531;1254;74817;-65
2024/02/11 08:24:57;;;;;;;14.60;5.00;;;;;;;13.01;57.36;100236.25;109527;1251;72834;-64
2024/02/11 08:27:24;;;;;;;19.90;4.90;;;;;;;12.98;57.49;100230.86;109527;1251;71722;-65
2024/02/11 08:29:52;;;;;;;26.20;6.40;;;;;;;12.97;57.54;100230.37;109495;1254;59236;-65
2024/02/11 08:32:20;;;;;;;13.70;5.00;;;;;;;12.96;57.64;100235.14;109544;1251;60165;-65
2024/02/11 08:34:49;;;;;;;16.70;5.50;;;;;;;12.95;57.56;100229.02;109499;1251;74640;-64
2024/02/11 08:37:17;;;;;;;14.50;5.40;;;;;;;12.92;57.84;100235.09;109229;1251;72851;-67
2024/02/11 08:39:45;;;;;;;18.50;5.40;;;;;;;12.90;57.96;100237.77;109487;1251;71878;-68
2024/02/11 08:42:14;;;;;;;19.30;5.80;;;;;;;12.92;58.14;100239.32;109487;1254;59009;-66
2024/02/11 08:44:42;;;;;;;21.10;5.90;;;;;;;12.92;58.10;100237.35;109228;1252;58989;-66
2024/02/11 08:47:10;;;;;;;15.20;6.60;;;;;;;12.93;58.10;100244.20;109467;1252;74608;-63
2024/02/11 08:49:37;;;;;;;17.30;5.40;;;;;;;12.95;58.09;100253.48;109484;1251;72887;-57
2024/02/11 08:52:06;;;;;;;18.30;5.10;;;;;;;12.97;57.90;100250.80;109197;1252;72718;-54
2024/02/11 08:54:34;;;;;;;16.30;5.60;;;;;;;12.96;57.93;100244.30;109150;1251;58981;-54
2024/02/11 08:57:02;;;;;;;16.40;6.00;;;;;;;12.95;57.84;100247.31;109276;1254;60531;-55
2024/02/11 08:59:30;;;;;;;13.90;5.10;;;;;;;12.94;58.05;100244.88;109509;1251;73463;-55
2024/02/11 09:01:59;;;;;;;16.00;5.00;;;;;;;12.94;58.04;100237.83;109335;1251;71626;-56
2024/02/11 09:04:28;;;;;;;16.80;6.10;;;;;;;12.95;58.10;100225.84;109444;1254;70935;-55
2024/02/11 09:06:56;;;;;;;17.40;5.00;;;;;;;12.96;58.16;100231.98;109241;1251;60101;-55
2024/02/11 09:09:27;;;;;;;17.30;5.20;;;;;;;12.99;58.16;100232.61;109548;1254;60051;-55
2024/02/11 09:11:58;;;;;;;16.90;4.90;;;;;;;13.01;58.06;100225.86;109508;1253;73769;-58
2024/02/11 09:14:27;;;;;;;17.70;5.90;;;;;;;13.05;58.63;100220.13;109506;1251;71580;-54
2024/02/11 09:16:56;;;;;;;25.10;6.40;;;;;;;13.13;59.23;100215.52;109494;1251;72696;-56
2024/02/11 09:19:28;;;;;;;21.70;7.10;;;;;;;13.22;59.30;100212.98;109516;1253;60805;-55
2024/02/11 09:21:57;;;;;;;16.00;6.20;;;;;;;13.31;59.20;100211.14;109513;1253;59022;-54
2024/02/11 09:24:25;;;;;;;22.90;6.70;;;;;;;13.39;58.80;100217.12;109206;1254;74738;-54
2024/02/11 09:26:53;;;;;;;21.40;7.50;;;;;;;13.47;58.55;100223.79;109521;1252;71616;-55
2024/02/11 09:29:21;;;;;;;18.70;5.60;;;;;;;13.52;58.25;100216.56;109481;1254;72712;-55
2024/02/11 09:31:49;;;;;;;17.80;5.70;;;;;;;13.58;57.84;100216.39;109503;1254;59890;-54
2024/02/11 09:34:17;;;;;;;15.40;4.40;;;;;;;13.63;57.61;100210.11;109501;1257;60237;-54
2024/02/11 09:36:45;;;;;;;18.50;5.10;;;;;;;13.67;57.68;100213.13;109411;1254;74894;-54
2024/02/11 09:39:15;;;;;;;18.60;5.50;;;;;;;13.74;57.74;100213.12;109114;1252;71628;-55
2024/02/11 09:41:43;;;;;;;22.90;6.00;;;;;;;13.80;57.52;100213.83;109486;1253;72479;-55
2024/02/11 09:44:12;;;;;;;19.50;6.40;;;;;;;13.84;57.77;100217.92;109180;1254;61973;-55
2024/02/11 09:46:40;;;;;;;19.20;5.50;;;;;;;13.89;57.56;100218.67;109469;1254;58935;-60
2024/02/11 09:49:13;;;;;;;21.60;6.00;;;;;;;13.93;57.47;100216.77;109292;1257;74913;-57
2024/02/11 09:51:41;;;;;;;17.70;5.40;;;;;;;13.95;57.23;100212.31;109123;1251;72674;-54
2024/02/11 09:54:09;;;;;;;16.70;5.50;;;;;;;13.97;56.96;100213.66;109438;1254;72704;-55
2024/02/11 09:56:37;;;;;;;15.10;5.10;;;;;;;14.00;56.82;100219.39;109434;1251;60105;-57
2024/02/11 09:59:05;;;;;;;18.70;5.20;;;;;;;14.05;56.66;100224.02;109435;1254;60130;-56
2024/02/11 10:01:33;;;;;;;14.70;5.50;;;;;;;14.07;56.35;100227.80;109198;1251;73511;-56
2024/02/11 10:04:04;;;;;;;14.80;4.70;;;;;;;14.07;56.19;100235.92;109386;1254;71438;-55
2024/02/11 10:06:37;;;;;;;20.70;5.10;;;;;;;14.05;55.97;100243.38;109342;1251;72772;-58
2024/02/11 10:09:10;;;;;;;19.40;6.50;;;;;;;14.02;56.09;100241.54;109327;1251;60123;-55
2024/02/11 10:11:39;;;;;;;18.00;6.10;;;;;;;14.01;55.91;100244.05;109332;1251;60060;-55
2024/02/11 10:14:17;;;;;;;16.90;5.50;;;;;;;14.00;55.94;100248.66;109298;1254;74172;-55
2024/02/11 10:16:44;;;;;;;19.40;6.10;;;;;;;14.00;55.98;100246.36;109313;1260;72871;-57
2024/02/11 10:19:12;;;;;;;14.60;6.00;;;;;;;14.02;55.97;100244.39;109325;1251;72761;-56
2024/02/11 10:21:44;;;;;;;16.20;5.70;;;;;;;14.03;56.00;100240.80;109092;1251;60304;-57
2024/02/11 10:24:17;;;;;;;20.10;5.80;;;;;;;14.07;55.98;100238.38;109367;1251;58948;-56
2024/02/11 10:26:47;;;;;;;18.70;6.80;;;;;;;14.10;55.81;100230.91;109280;1251;74900;-57
2024/02/11 10:29:18;;;;;;;18.80;6.20;;;;;;;14.12;55.80;100225.02;109274;1251;71679;-55
2024/02/11 10:31:47;;;;;;;14.20;5.30;;;;;;;14.15;55.74;100218.58;109332;1254;72458;-55
2024/02/11 10:34:14;;;;;;;15.40;5.40;;;;;;;14.17;55.67;100213.92;109323;1251;60034;-55
2024/02/11 10:36:42;;;;;;;15.30;4.60;;;;;;;14.20;55.70;100220.55;109305;1256;59118;-56
2024/02/11 10:39:10;;;;;;;15.10;4.90;;;;;;;14.24;55.69;100217.94;109250;1251;74012;-55
2024/02/11 10:41:38;;;;;;;17.60;5.90;;;;;;;14.30;55.65;100218.27;109335;1251;74738;-56
2024/02/11 10:44:06;;;;;;;17.90;5.40;;;;;;;14.39;56.57;100213.77;109349;1251;71396;-56
2024/02/11 10:46:33;;;;;;;22.00;6.60;;;;;;;14.52;56.94;100212.98;109184;1254;60111;-55
2024/02/11 10:49:03;;;;;;;16.00;5.50;;;;;;;14.62;57.06;100210.73;109390;1251;60435;-55
2024/02/11 10:51:35;;;;;;;17.90;5.50;;;;;;;14.75;56.84;100214.36;109498;1251;74911;-55
2024/02/11 10:54:03;;;;;;;23.30;6.00;;;;;;;14.87;56.31;100219.79;109517;1251;72012;-54
2024/02/11 10:56:31;;;;;;;15.80;4.90;;;;;;;14.97;55.85;100223.51;109270;1251;72718;-54
2024/02/11 10:59:26;;;;;;;17.10;5.60;;;;;;;15.07;55.46;100213.27;109339;1251;60983;-54
2024/02/11 11:01:54;;;;;;;19.70;6.20;;;;;;;15.16;55.09;100202.17;109102;1257;59042;-57
2024/02/11 11:04:22;;;;;;;21.20;6.80;;;;;;;15.24;55.49;100206.48;109012;1256;74588;-57
2024/02/11 11:06:51;;;;;;;20.80;5.60;;;;;;;15.31;55.31;100199.35;108898;1257;72884;-61
2024/02/11 11:09:20;;;;;;;17.30;5.50;;;;;;;15.34;54.79;100195.90;108787;1257;287629;-61
2024/02/11 11:11:47;;;;;;;15.20;5.30;;;;;;;15.33;54.39;100194.33;109073;1257;58967;-59
2024/02/11 11:14:19;;;;;;;14.50;5.80;;;;;;;15.33;54.03;100187.46;109045;1257;60084;-58
2024/02/11 11:16:47;;;;;;;20.90;6.70;;;;;;;15.33;54.07;100187.61;109077;1257;72467;-59
2024/02/11 11:19:15;;;;;;;18.20;7.60;;;;;;;15.37;53.72;100191.88;108988;1256;71792;-60